Home   Weather   India   Virudhunagar   Past weeks
Flag for India

Past Weather in Virudhunagar, Tamil Nadu, India — Yesterday and Last 2 Weeks

Currently: 81 °F. Fog. (Weather station: Tiruchchirapalli, India). See more current weather

Past Weather in Virudhunagar — Graph

°F

Virudhunagar Temperature Yesterday

Maximum temperature yesterday: 100 °F (at 2:30 pm)
Minimum temperature yesterday: 82 °F (at 12:30 am)
Average temperature yesterday: 89 °F

High & Low Weather Summary for the Past Weeks

 TemperatureHumidityPressure
High106 °F (Apr 3, 4:30 pm)94% (Apr 8, 6:30 am)29.98 "Hg (Apr 8, 6:30 am)
Low79 °F (Mar 30, 6:30 am)20% (Apr 6, 4:00 pm)29.65 "Hg (Apr 2, 4:30 pm)
Average90 °F65%29.81 "Hg
* Reported Mar 30 6:30 am — Apr 14 6:30 am, Virudhunagar. Weather by CustomWeather, © 2024

Note: Actual official high and low records may vary slightly from our data, if they occured in-between our weather recording intervals... More about our weather records

Virudhunagar Weather History for the Previous 24 Hours

Scroll right to see more
 ConditionsComfort  
Time TempWeatherWind HumidityBarometerVisibility
6:30 am
Sun, Apr 14
81 °FFog.5 mph89%29.83 "Hg2 mi
6:00 am81 °FFog.5 mph89%29.83 "Hg2 mi
5:30 am81 °FFog.3 mph89%29.83 "Hg2 mi
5:00 am81 °FFog.2 mph89%29.83 "Hg2 mi
4:30 am81 °FFog.2 mph89%29.80 "Hg2 mi
4:00 am82 °FFog.2 mph84%29.80 "Hg2 mi
3:30 am82 °FFog.3 mph84%29.80 "Hg2 mi
3:00 am82 °FFog.3 mph84%29.80 "Hg2 mi
2:30 am82 °FFog.3 mph84%29.80 "Hg2 mi
2:00 am82 °FFog.2 mph84%29.83 "Hg2 mi
1:30 am82 °FFog.3 mph84%29.83 "Hg2 mi
12:30 am84 °FFog.7 mph79%29.83 "Hg2 mi
12:00 am84 °FFog.3 mph74%29.86 "Hg2 mi
11:30 pm
Sat, Apr 13
84 °FPassing clouds.3 mph74%29.86 "Hg3 mi
11:00 pm84 °FPassing clouds.3 mph74%29.89 "Hg3 mi
10:30 pm86 °FHaze.3 mph70%29.86 "Hg3 mi
10:00 pm86 °FHaze.3 mph70%29.86 "Hg3 mi
9:30 pm86 °FHaze.5 mph70%29.86 "Hg3 mi
9:00 pm88 °FHaze.6 mph66%29.86 "Hg3 mi
8:30 pm88 °FHaze.7 mph62%29.86 "Hg3 mi
8:00 pm90 °FHaze.8 mph63%29.83 "Hg3 mi
7:30 pm91 °FHaze.7 mph59%29.80 "Hg3 mi
7:00 pm91 °FPassing clouds.10 mph59%29.77 "Hg3 mi
6:30 pm91 °FScattered clouds.9 mph63%29.77 "Hg4 mi
6:00 pm93 °FScattered clouds.12 mph59%29.77 "Hg4 mi
5:30 pm95 °FScattered clouds.9 mph53%29.74 "Hg4 mi
5:00 pm95 °FBroken clouds.9 mph56%29.74 "Hg4 mi
4:30 pm97 °FBroken clouds.9 mph53%29.74 "Hg4 mi
4:00 pm97 °FBroken clouds.10 mph56%29.74 "Hg4 mi
3:30 pm95 °FBroken clouds.12 mph56%29.74 "Hg4 mi
2:30 pm100 °FBroken clouds.9 mph40%29.77 "Hg4 mi
2:00 pm99 °FBroken clouds.12 mph47%29.77 "Hg4 mi
1:30 pm99 °FBroken clouds.7 mph47%29.80 "Hg4 mi
12:30 pm97 °FBroken clouds.12 mph53%29.83 "Hg4 mi
12:00 pm97 °FBroken clouds.10 mph56%29.86 "Hg4 mi
11:30 am95 °FScattered clouds.5 mph60%29.89 "Hg4 mi
11:00 am93 °FScattered clouds.5 mph63%29.89 "Hg4 mi
10:30 am93 °FScattered clouds.5 mph63%29.89 "Hg4 mi
10:00 am91 °FScattered clouds.6 mph80%29.89 "Hg3 mi
9:30 am90 °FScattered clouds.6 mph75%29.89 "Hg3 mi
8:30 am86 °FFog.6 mph89%29.89 "Hg2 mi
8:00 am86 °FFog.5 mph84%29.89 "Hg2 mi
7:30 am84 °FFog.5 mph89%29.86 "Hg2 mi
7:00 am82 °FFog.5 mph94%29.86 "Hg2 mi
Weather by CustomWeather, © 2024

See weather overview